Time,TemperatureF,DewpointF,PressureIn,WindDirection,WindDirectionDegrees,WindSpeedMPH,WindSpeedGustMPH,Humidity,HourlyPrecipIn,Conditions,Clouds,dailyrainin,SoftwareType,DateUTC
2013-02-02 00:11:00,20.5,10.6,30.05,East,90,1.1,-999.0,65,-99.99,,,0.00,Acu-Link.com,2013-02-02 05:11:00,
2013-02-02 00:26:00,19.8,10.3,30.06,ESE,112,0.0,-999.0,66,-99.99,,,0.00,Acu-Link.com,2013-02-02 05:26:00,
2013-02-02 00:41:00,20.5,10.6,30.04,NW,315,1.7,-999.0,65,-99.99,,,0.00,Acu-Link.com,2013-02-02 05:41:00,
2013-02-02 00:57:00,20.3,11.1,30.04,WNW,292,1.7,-999.0,67,-99.99,,,0.00,Acu-Link.com,2013-02-02 05:57:00,
2013-02-02 01:12:00,19.9,10.4,30.04,West,270,0.0,-999.0,66,-99.99,,,0.00,Acu-Link.com,2013-02-02 06:12:00,
2013-02-02 01:27:00,20.5,11.0,30.04,WNW,292,1.1,-999.0,66,-99.99,,,0.00,Acu-Link.com,2013-02-02 06:27:00,
2013-02-02 01:42:00,20.8,11.3,30.06,ESE,112,0.0,-999.0,66,-99.99,,,0.00,Acu-Link.com,2013-02-02 06:42:00,
2013-02-02 01:57:00,20.7,10.8,30.05,ESE,112,1.7,-999.0,65,-99.99,,,0.00,Acu-Link.com,2013-02-02 06:57:00,
2013-02-02 02:12:00,20.7,10.8,30.06,ESE,112,0.0,-999.0,65,-99.99,,,0.00,Acu-Link.com,2013-02-02 07:12:00,
2013-02-02 02:27:00,19.9,11.1,30.05,SW,225,1.1,-999.0,68,-99.99,,,0.00,Acu-Link.com,2013-02-02 07:27:00,
2013-02-02 02:42:00,20.5,11.6,30.03,ESE,112,1.7,-999.0,68,-99.99,,,0.00,Acu-Link.com,2013-02-02 07:42:00,
2013-02-02 02:57:00,19.9,11.1,30.04,SSW,202,0.0,-999.0,68,-99.99,,,0.00,Acu-Link.com,2013-02-02 07:57:00,
2013-02-02 03:13:00,20.1,11.6,30.03,SW,225,0.0,-999.0,69,-99.99,,,0.00,Acu-Link.com,2013-02-02 08:13:00,
2013-02-02 03:28:00,19.8,11.3,30.04,West,270,0.0,-999.0,69,-99.99,,,0.00,Acu-Link.com,2013-02-02 08:28:00,
2013-02-02 03:43:00,19.8,11.9,30.04,SE,135,1.1,-999.0,71,-99.99,,,0.00,Acu-Link.com,2013-02-02 08:43:00,
2013-02-02 03:58:00,20.1,12.5,30.03,NW,315,0.0,-999.0,72,-99.99,,,0.00,Acu-Link.com,2013-02-02 08:58:00,
2013-02-02 04:16:00,20.1,12.5,30.03,ESE,112,0.0,-999.0,72,-99.99,,,0.00,Acu-Link.com,2013-02-02 09:16:00,
2013-02-02 04:31:00,20.3,13.1,30.03,SE,135,0.0,-999.0,73,-99.99,,,0.00,Acu-Link.com,2013-02-02 09:31:00,
2013-02-02 04:46:00,20.7,14.4,30.01,SE,135,0.0,-999.0,76,-99.99,,,0.00,Acu-Link.com,2013-02-02 09:46:00,
2013-02-02 05:01:00,20.1,13.5,30.01,WNW,292,0.0,-999.0,75,-99.99,,,0.00,Acu-Link.com,2013-02-02 10:01:00,
2013-02-02 05:17:00,20.1,14.1,30.03,SE,135,0.0,-999.0,77,-99.99,,,0.00,Acu-Link.com,2013-02-02 10:17:00,
2013-02-02 05:32:00,20.7,14.7,30.02,ESE,112,1.1,-999.0,77,-99.99,,,0.00,Acu-Link.com,2013-02-02 10:32:00,
2013-02-02 05:47:00,20.7,14.9,30.02,ESE,112,2.2,-999.0,78,-99.99,,,0.00,Acu-Link.com,2013-02-02 10:47:00,
2013-02-02 06:02:00,20.7,14.9,30.04,ESE,112,2.7,-999.0,78,-99.99,,,0.00,Acu-Link.com,2013-02-02 11:02:00,
2013-02-02 06:17:00,20.3,14.8,30.03,ESE,112,3.2,-999.0,79,-99.99,,,0.00,Acu-Link.com,2013-02-02 11:17:00,
2013-02-02 06:32:00,20.1,14.9,30.03,ESE,112,2.2,-999.0,80,-99.99,,,0.00,Acu-Link.com,2013-02-02 11:32:00,
2013-02-02 06:47:00,20.1,14.9,30.04,ENE,67,2.2,-999.0,80,-99.99,,,0.00,Acu-Link.com,2013-02-02 11:47:00,
2013-02-02 07:02:00,19.9,15.0,30.04,ESE,112,2.7,-999.0,81,-99.99,,,0.00,Acu-Link.com,2013-02-02 12:02:00,
2013-02-02 07:17:00,19.8,15.2,30.04,SE,135,0.0,-999.0,82,-99.99,,,0.00,Acu-Link.com,2013-02-02 12:17:00,
2013-02-02 07:33:00,19.8,15.2,30.04,ESE,112,0.0,-999.0,82,-99.99,,,0.00,Acu-Link.com,2013-02-02 12:33:00,
2013-02-02 07:48:00,19.9,15.3,30.04,ESE,112,1.7,-999.0,82,-99.99,,,0.00,Acu-Link.com,2013-02-02 12:48:00,
2013-02-02 08:03:00,20.8,15.3,30.04,ESE,112,3.2,-999.0,79,-99.99,,,0.00,Acu-Link.com,2013-02-02 13:03:00,
2013-02-02 08:18:00,21.0,15.2,30.03,ESE,112,3.2,-999.0,78,-99.99,,,0.00,Acu-Link.com,2013-02-02 13:18:00,
2013-02-02 08:33:00,22.5,15.8,30.02,ESE,112,2.7,-999.0,75,-99.99,,,0.00,Acu-Link.com,2013-02-02 13:33:00,
2013-02-02 08:48:00,23.9,16.5,30.03,SE,135,3.2,-999.0,73,-99.99,,,0.00,Acu-Link.com,2013-02-02 13:48:00,
2013-02-02 09:12:00,25.3,14.5,30.02,ESE,112,2.2,-999.0,63,-99.99,,,0.00,Acu-Link.com,2013-02-02 14:12:00,
2013-02-02 09:29:00,25.9,13.6,30.01,ESE,112,2.7,-999.0,59,-99.99,,,0.00,Acu-Link.com,2013-02-02 14:29:00,
2013-02-02 09:44:00,27.5,11.3,30.01,ESE,112,2.7,-999.0,50,-99.99,,,0.00,Acu-Link.com,2013-02-02 14:44:00,
2013-02-02 09:59:00,28.9,11.2,29.99,SSE,157,5.8,-999.0,47,-99.99,,,0.00,Acu-Link.com,2013-02-02 14:59:00,
2013-02-02 10:14:00,29.1,11.9,29.98,ESE,112,3.7,-999.0,48,-99.99,,,0.00,Acu-Link.com,2013-02-02 15:14:00,
2013-02-02 10:29:00,31.1,11.2,29.98,ESE,112,5.3,-999.0,43,-99.99,,,0.00,Acu-Link.com,2013-02-02 15:29:00,
2013-02-02 10:44:00,33.1,11.4,29.98,ESE,112,5.8,-999.0,40,-99.99,,,0.00,Acu-Link.com,2013-02-02 15:44:00,
2013-02-02 10:59:00,32.2,10.1,29.97,ESE,112,8.3,-999.0,39,-99.99,,,0.00,Acu-Link.com,2013-02-02 15:59:00,
2013-02-02 11:15:00,33.3,9.9,29.95,ESE,112,3.7,-999.0,37,-99.99,,,0.00,Acu-Link.com,2013-02-02 16:15:00,
2013-02-02 11:30:00,35.4,11.1,29.96,SSE,157,1.7,-999.0,36,-99.99,,,0.00,Acu-Link.com,2013-02-02 16:30:00,
2013-02-02 11:45:00,35.2,11.0,29.94,SW,225,1.1,-999.0,36,-99.99,,,0.00,Acu-Link.com,2013-02-02 16:45:00,
2013-02-02 12:00:00,39.4,12.7,29.93,SSE,157,3.7,-999.0,33,-99.99,,,0.00,Acu-Link.com,2013-02-02 17:00:00,
2013-02-02 12:15:00,40.1,12.6,29.93,South,180,1.7,-999.0,32,-99.99,,,0.00,Acu-Link.com,2013-02-02 17:15:00,
2013-02-02 12:30:00,40.8,12.5,29.91,ESE,112,3.7,-999.0,31,-99.99,,,0.00,Acu-Link.com,2013-02-02 17:30:00,
2013-02-02 12:49:00,40.5,13.0,29.90,SSE,157,2.2,-999.0,32,-99.99,,,0.00,Acu-Link.com,2013-02-02 17:49:00,
2013-02-02 13:04:00,39.4,13.4,29.88,East,90,3.2,-999.0,34,-99.99,,,0.00,Acu-Link.com,2013-02-02 18:04:00,
2013-02-02 13:19:00,40.5,14.4,29.87,ESE,112,3.2,-999.0,34,-99.99,,,0.00,Acu-Link.com,2013-02-02 18:19:00,
2013-02-02 13:34:00,44.1,18.2,29.85,South,180,8.3,-999.0,35,-99.99,,,0.00,Acu-Link.com,2013-02-02 18:34:00,
2013-02-02 13:49:00,42.4,19.2,29.84,SW,225,8.9,-999.0,39,-99.99,,,0.00,Acu-Link.com,2013-02-02 18:49:00,
2013-02-02 14:04:00,41.5,22.3,29.83,ESE,112,8.3,-999.0,46,-99.99,,,0.00,Acu-Link.com,2013-02-02 19:04:00,
2013-02-02 14:20:00,41.2,24.5,29.82,SSW,202,7.3,-999.0,51,-99.99,,,0.00,Acu-Link.com,2013-02-02 19:20:00,
2013-02-02 14:35:00,41.2,25.8,29.83,ESE,112,6.8,-999.0,54,-99.99,,,0.00,Acu-Link.com,2013-02-02 19:35:00,
2013-02-02 14:50:00,40.3,26.3,29.82,WSW,247,4.7,-999.0,57,-99.99,,,0.00,Acu-Link.com,2013-02-02 19:50:00,
2013-02-02 15:05:00,40.5,26.9,29.82,West,270,3.2,-999.0,58,-99.99,,,0.00,Acu-Link.com,2013-02-02 20:05:00,
2013-02-02 15:20:00,39.4,25.0,29.82,South,180,8.3,-999.0,56,-99.99,,,0.00,Acu-Link.com,2013-02-02 20:20:00,
2013-02-02 15:35:00,39.6,24.8,29.81,ESE,112,7.3,-999.0,55,-99.99,,,0.00,Acu-Link.com,2013-02-02 20:35:00,
2013-02-02 15:51:00,39.0,25.5,29.80,South,180,5.3,-999.0,58,-99.99,,,0.00,Acu-Link.com,2013-02-02 20:51:00,
2013-02-02 16:06:00,38.5,27.4,29.80,SSE,157,6.8,-999.0,64,-99.99,,,0.00,Acu-Link.com,2013-02-02 21:06:00,
2013-02-02 16:21:00,38.5,28.5,29.79,West,270,6.3,-999.0,67,-99.99,,,0.00,Acu-Link.com,2013-02-02 21:21:00,
2013-02-02 16:36:00,37.4,29.9,29.80,SSW,202,7.3,-999.0,74,-99.99,,,0.00,Acu-Link.com,2013-02-02 21:36:00,
2013-02-02 16:51:00,36.3,30.7,29.80,ESE,112,6.8,-999.0,80,-99.99,,,0.00,Acu-Link.com,2013-02-02 21:51:00,
2013-02-02 17:06:00,36.1,31.1,29.80,ESE,112,2.7,-999.0,82,-99.99,,,0.00,Acu-Link.com,2013-02-02 22:06:00,
2013-02-02 17:32:00,36.0,31.3,29.78,West,270,3.7,-999.0,83,-99.99,,,0.00,Acu-Link.com,2013-02-02 22:32:00,
2013-02-02 17:50:00,35.4,31.3,29.77,SE,135,1.7,-999.0,85,-99.99,,,0.00,Acu-Link.com,2013-02-02 22:50:00,
2013-02-02 18:05:00,35.4,31.9,29.75,North,0,2.2,-999.0,87,-99.99,,,0.00,Acu-Link.com,2013-02-02 23:05:00,
2013-02-02 18:20:00,34.9,31.7,29.76,SSW,202,4.2,-999.0,88,-99.99,,,0.00,Acu-Link.com,2013-02-02 23:20:00,
2013-02-02 18:35:00,34.7,31.5,29.77,SW,225,5.3,-999.0,88,-99.99,,,0.00,Acu-Link.com,2013-02-02 23:35:00,
2013-02-02 18:50:00,34.5,31.6,29.77,South,180,2.7,-999.0,89,-99.99,,,0.00,Acu-Link.com,2013-02-02 23:50:00,
2013-02-02 19:05:00,34.5,31.9,29.76,ESE,112,4.2,-999.0,90,-99.99,,,0.00,Acu-Link.com,2013-02-03 00:05:00,
2013-02-02 19:21:00,34.5,32.1,29.76,WSW,247,2.7,-999.0,91,-99.99,,,0.00,Acu-Link.com,2013-02-03 00:21:00,
2013-02-02 19:36:00,34.5,32.1,29.77,South,180,3.2,-999.0,91,-99.99,,,0.00,Acu-Link.com,2013-02-03 00:36:00,
2013-02-02 19:52:00,34.5,32.1,29.76,ESE,112,3.7,-999.0,91,-99.99,,,0.00,Acu-Link.com,2013-02-03 00:52:00,
2013-02-02 20:07:00,34.5,32.4,29.76,SSW,202,5.3,-999.0,92,-99.99,,,0.00,Acu-Link.com,2013-02-03 01:07:00,
2013-02-02 20:23:00,34.3,32.2,29.78,ESE,112,6.3,-999.0,92,-99.99,,,0.00,Acu-Link.com,2013-02-03 01:23:00,
2013-02-02 20:38:00,34.3,32.2,29.78,SSW,202,6.8,-999.0,92,-99.99,,,0.00,Acu-Link.com,2013-02-03 01:38:00,
2013-02-02 20:53:00,34.3,32.2,29.78,SSW,202,5.3,-999.0,92,-99.99,,,0.00,Acu-Link.com,2013-02-03 01:53:00,
2013-02-02 21:08:00,34.3,32.2,29.77,West,270,5.8,-999.0,92,-99.99,,,0.00,Acu-Link.com,2013-02-03 02:08:00,
2013-02-02 21:23:00,34.3,32.2,29.77,WSW,247,4.2,-999.0,92,-99.99,,,0.00,Acu-Link.com,2013-02-03 02:23:00,
2013-02-02 21:38:00,34.3,32.2,29.77,ESE,112,4.2,-999.0,92,-99.99,,,0.00,Acu-Link.com,2013-02-03 02:38:00,
2013-02-02 21:53:00,34.0,32.2,29.76,SW,225,2.2,-999.0,93,-99.99,,,0.00,Acu-Link.com,2013-02-03 02:53:00,
2013-02-02 22:08:00,33.8,32.0,29.76,West,270,3.7,-999.0,93,-99.99,,,0.00,Acu-Link.com,2013-02-03 03:08:00,
2013-02-02 22:23:00,33.4,31.9,29.75,SW,225,1.7,-999.0,94,-99.99,,,0.00,Acu-Link.com,2013-02-03 03:23:00,
2013-02-02 22:39:00,33.4,32.1,29.75,SW,225,1.7,-999.0,95,-99.99,,,0.00,Acu-Link.com,2013-02-03 03:39:00,
2013-02-02 22:54:00,33.4,32.1,29.75,SSW,202,0.0,-999.0,95,-99.99,,,0.00,Acu-Link.com,2013-02-03 03:54:00,
2013-02-02 23:09:00,33.4,32.1,29.74,ESE,112,0.0,-999.0,95,-99.99,,,0.00,Acu-Link.com,2013-02-03 04:09:00,
2013-02-02 23:24:00,33.4,32.1,29.74,NNE,22,0.0,-999.0,95,-99.99,,,0.00,Acu-Link.com,2013-02-03 04:24:00,
2013-02-02 23:39:00,33.4,32.4,29.74,NE,45,0.0,-999.0,96,-99.99,,,0.00,Acu-Link.com,2013-02-03 04:39:00,
2013-02-02 23:54:00,33.4,32.4,29.73,SSE,157,0.0,-999.0,96,-99.99,,,0.00,Acu-Link.com,2013-02-03 04:54:00,